Hugo, Oklahoma
Current Conditions -  °F | °C
As of 6:15 AM on Friday 24 Oct 2014 (Local Time) from KHHW Reporting Station
Haze Haze  
Wind Chill: 54°   Ceiling: Unl
Heat Index: 54°   Visibility: 5mi
Dew Point: 51°   Wind: 3mph
Humidity: 89%   Direction: 120°ESE
Pressure: 30.15"   Gusts: NA
Location:  34.01°N, 95.51°W
Report Text: KHHW 241115Z AUTO 12003KT 5SM BR CLR 12/11 A3015 RMK AO2 T01220105
Loading
Personal Weather Stations






























Interactive Weather Map
Tropical Storm Tracking
New forecast layout! Learn more

10-Day Weather Forecast

Advertisements
Track Severe Weather on mobile